Time;durP1;ratioP1;P1;durP2;ratioP2;P2;SDS_P1;SDS_P2;PMS_P1;PMS_P2;Temp;Humidity;BMP_temperature;BMP_pressure;BME280_temperature;BME280_humidity;BME280_pressure;Samples;Min_cycle;Max_cycle;Signal;HPM_P1;HPM_P2
2023/02/11 00:01:46;;;;;;;20.92;3.83;;;;;;;-143.48;86.69;118439.88;5055997;28;20380;-29
2023/02/11 00:04:12;;;;;;;28.83;4.20;;;;;;;-143.48;86.87;118439.88;5055950;28;20063;-29
2023/02/11 00:06:37;;;;;;;26.08;3.75;;;;;;;-143.48;86.04;118439.88;5056089;28;20020;-29
2023/02/11 00:09:03;;;;;;;31.42;4.40;;;;;;;-143.48;86.24;118439.88;5055908;28;20028;-29
2023/02/11 00:11:34;;;;;;;31.13;4.25;;;;;;;-143.48;87.03;118439.88;5055537;28;20472;-29
2023/02/11 00:14:02;;;;;;;27.10;4.03;;;;;;;-143.48;87.05;118439.88;5055877;28;20025;-30
2023/02/11 00:16:29;;;;;;;22.90;4.20;;;;;;;-143.48;86.84;118439.88;5055873;28;20104;-29
2023/02/11 00:18:54;;;;;;;20.23;4.13;;;;;;;-143.48;86.70;118439.88;5055473;28;20116;-30
2023/02/11 00:21:24;;;;;;;27.30;4.57;;;;;;;-143.48;87.44;118439.88;5055460;28;20543;-29
2023/02/11 00:23:49;;;;;;;19.15;3.97;;;;;;;-143.48;87.31;118439.88;5055424;28;20028;-29
2023/02/11 00:26:23;;;;;;;23.02;3.92;;;;;;;-143.48;87.22;118439.88;5055911;28;20024;-30
2023/02/11 00:28:50;;;;;;;27.38;4.32;;;;;;;-143.48;87.60;118439.88;5055918;28;20024;-29
2023/02/11 00:31:16;;;;;;;27.40;3.92;;;;;;;-143.48;88.11;118439.88;5055337;28;20021;-29
2023/02/11 00:33:42;;;;;;;20.35;3.92;;;;;;;-143.48;88.09;118439.88;5055275;28;20383;-30
2023/02/11 00:36:12;;;;;;;27.02;4.22;;;;;;;-143.48;87.70;118439.88;5055426;28;20074;-29
2023/02/11 00:38:37;;;;;;;22.88;4.07;;;;;;;-143.48;87.24;118439.88;5055175;28;20052;-30
2023/02/11 00:41:02;;;;;;;22.65;4.22;;;;;;;-143.48;87.36;118439.88;5055089;28;20017;-29
2023/02/11 00:43:28;;;;;;;30.67;3.92;;;;;;;-143.48;87.39;118439.88;5055365;28;20494;-29
2023/02/11 00:45:53;;;;;;;19.77;3.97;;;;;;;-143.48;87.23;118439.88;5055460;28;20056;-29
2023/02/11 00:48:18;;;;;;;35.72;4.75;;;;;;;-143.48;87.10;118439.88;5055034;28;20418;-29
2023/02/11 00:50:44;;;;;;;21.33;4.47;;;;;;;-143.48;87.36;118439.88;5055014;28;20535;-29
2023/02/11 00:53:09;;;;;;;25.48;5.15;;;;;;;-143.48;88.07;118439.88;5054909;28;20025;-29
2023/02/11 00:55:35;;;;;;;27.17;4.18;;;;;;;-143.48;87.94;118439.88;5054687;28;20033;-29
2023/02/11 00:58:00;;;;;;;21.67;4.32;;;;;;;-143.48;87.96;118439.88;5055018;28;20502;-30
2023/02/11 01:00:26;;;;;;;32.50;4.85;;;;;;;-143.48;88.12;118439.88;5054732;28;20017;-29
2023/02/11 01:02:52;;;;;;;22.70;4.75;;;;;;;-143.48;88.28;118439.88;5054948;28;20028;-29
2023/02/11 01:05:18;;;;;;;27.60;4.18;;;;;;;-143.48;88.43;118439.88;5054609;28;20025;-29
2023/02/11 01:07:45;;;;;;;25.30;4.20;;;;;;;-143.48;88.53;118439.88;5055121;28;20032;-29
2023/02/11 01:10:11;;;;;;;25.15;4.18;;;;;;;-143.48;88.50;118439.88;5053373;28;20364;-29
2023/02/11 01:12:36;;;;;;;32.38;4.50;;;;;;;-143.48;88.74;118439.88;5054561;28;20147;-29
2023/02/11 01:15:03;;;;;;;30.80;5.75;;;;;;;-143.48;88.48;118439.88;5054504;28;20036;-29
2023/02/11 01:17:28;;;;;;;25.25;4.97;;;;;;;-143.48;88.90;118439.88;5054385;28;20021;-29
2023/02/11 01:19:54;;;;;;;23.42;4.90;;;;;;;-143.48;89.54;118439.88;5054627;28;20037;-29
2023/02/11 01:22:19;;;;;;;28.48;4.68;;;;;;;-143.48;89.40;118439.88;5054723;28;20029;-29
2023/02/11 01:24:44;;;;;;;29.67;4.50;;;;;;;-143.48;89.31;118439.88;5054351;28;20078;-29
2023/02/11 01:27:10;;;;;;;22.55;4.43;;;;;;;-143.48;89.09;118439.88;5054285;28;20021;-29
2023/02/11 01:29:35;;;;;;;27.77;5.30;;;;;;;-143.48;89.04;118439.88;5054078;28;20128;-29
2023/02/11 01:32:00;;;;;;;22.60;4.68;;;;;;;-143.48;89.52;118439.88;5054452;28;20025;-29
2023/02/11 01:34:26;;;;;;;30.90;6.47;;;;;;;-143.48;89.91;118439.88;5054145;28;20025;-29
2023/02/11 01:36:56;;;;;;;27.25;5.32;;;;;;;-143.48;90.44;118439.88;5053490;28;20369;-30
2023/02/11 01:39:22;;;;;;;26.02;4.65;;;;;;;-143.48;90.57;118439.88;5052702;28;20467;-30
2023/02/11 01:41:47;;;;;;;22.45;4.28;;;;;;;-143.48;90.74;118439.88;5054243;28;20021;-29
2023/02/11 01:44:22;;;;;;;23.45;4.78;;;;;;;-143.48;90.58;118439.88;5054513;28;20083;-30
2023/02/11 01:46:48;;;;;;;25.05;4.68;;;;;;;-143.48;90.08;118439.88;5054994;28;20112;-29
2023/02/11 01:49:21;;;;;;;24.63;4.80;;;;;;;-143.48;89.28;118439.88;5053864;28;20028;-29
2023/02/11 01:51:50;;;;;;;28.65;5.20;;;;;;;-143.48;89.86;118439.88;5053756;28;20116;-30
2023/02/11 02:00:15;;;;;;;26.00;4.95;;;;;;;-143.48;90.76;118439.88;5053889;28;20123;-29
2023/02/11 02:02:59;;;;;;;32.85;5.55;;;;;;;-143.48;90.52;118439.88;5052325;28;20033;-29
2023/02/11 02:05:45;;;;;;;26.83;4.90;;;;;;;-143.48;90.56;118439.88;5053375;28;20112;-30
2023/02/11 02:08:21;;;;;;;30.70;5.30;;;;;;;-143.48;90.75;118439.88;5053573;28;20037;-29
2023/02/11 02:10:55;;;;;;;29.50;5.28;;;;;;;-143.48;90.91;118439.88;5053860;28;20107;-29
2023/02/11 02:13:21;;;;;;;27.30;5.13;;;;;;;-143.48;91.07;118439.88;5053416;28;20041;-33
2023/02/11 02:15:59;;;;;;;26.02;4.88;;;;;;;-143.48;91.38;118439.88;5053427;28;20079;-29
2023/02/11 02:18:43;;;;;;;32.13;5.78;;;;;;;-143.48;91.42;118439.88;5053817;28;20135;-30
2023/02/11 02:21:27;;;;;;;27.30;4.85;;;;;;;-143.48;91.17;118439.88;5052144;28;20074;-29
2023/02/11 02:24:26;;;;;;;24.50;5.22;;;;;;;-143.48;90.82;118439.88;5053650;28;20032;-29
2023/02/11 02:26:57;;;;;;;25.77;5.07;;;;;;;-143.48;90.89;118439.88;5052028;28;20047;-29
2023/02/11 02:29:44;;;;;;;28.65;4.68;;;;;;;-143.48;90.63;118439.88;5053378;28;20021;-29
2023/02/11 02:32:15;;;;;;;24.02;5.32;;;;;;;-143.48;91.41;118439.88;5053595;28;20053;-29
2023/02/11 02:34:49;;;;;;;27.42;5.38;;;;;;;-143.48;91.64;118439.88;5052796;28;20032;-29
2023/02/11 02:37:42;;;;;;;31.20;5.93;;;;;;;-143.48;91.57;118439.88;5053457;28;20029;-29
2023/02/11 02:40:15;;;;;;;25.67;4.70;;;;;;;-143.48;91.76;118439.88;5053690;28;20032;-29
2023/02/11 02:42:42;;;;;;;;;;;;;;;-143.48;92.08;118439.88;5054171;28;20484;-29
2023/02/11 02:45:10;;;;;;;31.95;5.13;;;;;;;-143.48;92.08;118439.88;5053202;28;20363;-29
2023/02/11 02:47:35;;;;;;;26.23;4.57;;;;;;;-143.48;92.37;118439.88;5053015;28;20025;-29
2023/02/11 02:50:01;;;;;;;29.33;5.55;;;;;;;-143.48;92.05;118439.88;5053095;28;20120;-29
2023/02/11 02:52:45;;;;;;;23.70;4.97;;;;;;;-143.48;92.00;118439.88;5053407;28;20402;-29
2023/02/11 02:55:27;;;;;;;22.30;4.25;;;;;;;-143.48;91.77;118439.88;5053393;28;20033;-30
2023/02/11 02:58:08;;;;;;;23.42;5.07;;;;;;;-143.48;91.95;118439.88;5053246;28;20108;-29
2023/02/11 03:01:02;;;;;;;32.75;5.10;;;;;;;-143.48;92.36;118439.88;5053242;28;20078;-29
2023/02/11 03:03:56;;;;;;;27.80;5.47;;;;;;;-143.48;91.79;118439.88;5035332;28;20037;-29
2023/02/11 03:06:26;;;;;;;;;;;;;;;-143.48;92.05;118439.88;5053721;28;20037;-29
2023/02/11 03:09:13;;;;;;;23.05;5.07;;;;;;;-143.48;92.14;118439.88;5053171;28;19909;-29
2023/02/11 03:11:38;;;;;;;24.48;5.25;;;;;;;-143.48;92.11;118439.88;5053218;28;20029;-29
2023/02/11 03:14:07;;;;;;;22.60;4.78;;;;;;;-143.48;92.07;118439.88;5053182;28;20082;-29
2023/02/11 03:16:37;;;;;;;23.42;4.97;;;;;;;-143.48;92.38;118439.88;5053437;28;20021;-29
2023/02/11 03:19:12;;;;;;;29.02;5.45;;;;;;;-143.48;92.14;118439.88;5055389;28;20404;-29
2023/02/11 03:21:40;;;;;;;22.13;5.63;;;;;;;-143.48;92.32;118439.88;5056873;28;20100;-29
2023/02/11 03:24:11;;;;;;;23.05;5.25;;;;;;;-143.48;92.49;118439.88;5057072;28;20035;-29
2023/02/11 03:26:50;;;;;;;24.77;5.05;;;;;;;-143.48;92.09;118439.88;5056838;28;20024;-29
2023/02/11 03:29:33;;;;;;;24.85;4.80;;;;;;;-143.48;92.23;118439.88;5056475;28;20028;-29
2023/02/11 03:32:05;;;;;;;22.90;5.13;;;;;;;-143.48;92.75;118439.88;5056404;28;20035;-29
2023/02/11 03:34:47;;;;;;;30.80;5.90;;;;;;;-143.48;93.07;118439.88;5056440;28;20479;-29
2023/02/11 03:37:21;;;;;;;22.38;4.97;;;;;;;-143.48;93.48;118439.88;5056671;28;20020;-29
2023/02/11 03:39:53;;;;;;;21.58;5.38;;;;;;;-143.48;93.53;118439.88;5056267;28;20021;-29
2023/02/11 03:42:23;;;;;;;36.10;5.95;;;;;;;-143.48;93.21;118439.88;5056756;28;20039;-29
2023/02/11 03:44:55;;;;;;;32.47;6.00;;;;;;;-143.48;93.34;118439.88;5055533;28;20098;-29
2023/02/11 03:47:24;;;;;;;24.00;5.32;;;;;;;-143.48;93.39;118439.88;5056719;28;20021;-29
2023/02/11 03:49:52;;;;;;;27.65;5.53;;;;;;;-143.48;93.94;118439.88;5056318;28;20029;-29
2023/02/11 03:52:20;;;;;;;20.35;5.82;;;;;;;-143.48;93.82;118439.88;5056066;28;20032;-29
2023/02/11 03:54:50;;;;;;;24.77;6.20;;;;;;;-143.48;93.63;118439.88;5056582;28;20025;-29
2023/02/11 03:57:15;;;;;;;26.25;5.93;;;;;;;-143.48;93.69;118439.88;5056599;28;20033;-29
2023/02/11 03:59:55;;;;;;;21.35;6.28;;;;;;;-143.48;93.31;118439.88;5056454;28;20025;-29
2023/02/11 04:02:28;;;;;;;31.67;6.22;;;;;;;-143.48;93.35;118439.88;5056475;28;20036;-29
2023/02/11 04:04:54;;;;;;;28.70;6.25;;;;;;;-143.48;93.45;118439.88;5055808;28;20107;-29
2023/02/11 04:07:19;;;;;;;33.78;6.28;;;;;;;-143.48;93.60;118439.88;5056082;28;20025;-29
2023/02/11 04:09:44;;;;;;;26.83;7.45;;;;;;;-143.48;93.60;118439.88;5056005;28;20418;-29
2023/02/11 04:12:10;;;;;;;29.25;6.60;;;;;;;-143.48;93.83;118439.88;5055766;28;20529;-29
2023/02/11 04:14:35;;;;;;;29.27;6.85;;;;;;;-143.48;93.67;118439.88;5055632;28;20051;-29
2023/02/11 04:17:01;;;;;;;35.70;6.55;;;;;;;-143.48;93.96;118439.88;5055623;28;20033;-29
2023/02/11 04:19:26;;;;;;;25.30;6.28;;;;;;;-143.48;93.94;118439.88;5055380;28;20045;-29
2023/02/11 04:21:51;;;;;;;22.77;6.07;;;;;;;-143.48;93.80;118439.88;5055797;28;20017;-29
2023/02/11 04:24:17;;;;;;;28.13;6.63;;;;;;;-143.48;93.90;118439.88;5055694;28;20025;-29
2023/02/11 04:26:42;;;;;;;23.58;6.70;;;;;;;-143.48;93.63;118439.88;5055596;28;20021;-29
2023/02/11 04:29:07;;;;;;;28.13;6.82;;;;;;;-143.48;93.77;118439.88;5054943;28;20025;-29
2023/02/11 04:31:32;;;;;;;31.88;7.30;;;;;;;-143.48;94.30;118439.88;5055605;28;20025;-30
2023/02/11 04:33:58;;;;;;;25.95;7.72;;;;;;;-143.48;94.26;118439.88;5055295;28;20111;-29
2023/02/11 04:36:23;;;;;;;31.63;8.35;;;;;;;-143.48;94.20;118439.88;5055977;28;20033;-29
2023/02/11 04:38:48;;;;;;;24.15;7.20;;;;;;;-143.48;94.52;118439.88;5055164;28;20074;-29
2023/02/11 04:41:14;;;;;;;23.88;6.80;;;;;;;-143.48;94.46;118439.88;5055649;28;20025;-29
2023/02/11 04:43:39;;;;;;;27.58;7.45;;;;;;;-143.48;94.18;118439.88;5055231;28;20033;-29
2023/02/11 04:46:04;;;;;;;23.13;7.22;;;;;;;-143.48;94.35;118439.88;5055299;28;20040;-29
2023/02/11 04:48:30;;;;;;;31.95;7.80;;;;;;;-143.48;94.34;118439.88;5054972;28;20032;-29
2023/02/11 04:50:55;;;;;;;28.38;8.25;;;;;;;-143.48;93.75;118439.88;5054978;28;20156;-29
2023/02/11 04:53:21;;;;;;;33.15;8.93;;;;;;;-143.48;94.21;118439.88;5054889;28;20158;-29
2023/02/11 04:55:49;;;;;;;24.67;8.20;;;;;;;-143.48;93.87;118439.88;5055187;28;20125;-30
2023/02/11 04:58:15;;;;;;;23.75;8.13;;;;;;;-143.48;93.66;118439.88;5055154;28;20024;-29
2023/02/11 05:00:40;;;;;;;38.38;9.07;;;;;;;-143.48;94.35;118439.88;5054680;28;20036;-29
2023/02/11 05:03:06;;;;;;;30.25;8.35;;;;;;;-143.48;94.73;118439.88;5054836;28;20020;-29
2023/02/11 05:05:31;;;;;;;31.05;8.98;;;;;;;-143.48;94.76;118439.88;5054770;28;20025;-29
2023/02/11 05:07:56;;;;;;;38.00;9.48;;;;;;;-143.48;95.00;118439.88;5054612;28;20024;-29
2023/02/11 05:10:22;;;;;;;30.58;8.50;;;;;;;-143.48;94.76;118439.88;5053844;28;20460;-29
2023/02/11 05:12:48;;;;;;;37.05;9.27;;;;;;;-143.48;94.81;118439.88;5054506;28;20020;-29
2023/02/11 05:15:13;;;;;;;32.45;9.55;;;;;;;-143.48;94.88;118439.88;5054664;28;20021;-29
2023/02/11 05:17:39;;;;;;;31.77;9.40;;;;;;;-143.48;94.96;118439.88;5054804;28;20415;-29
2023/02/11 05:20:05;;;;;;;26.67;9.40;;;;;;;-143.48;95.27;118439.88;5054173;28;20040;-29
2023/02/11 05:22:30;;;;;;;29.38;10.32;;;;;;;-143.48;94.88;118439.88;5054593;28;20121;-29
2023/02/11 05:24:55;;;;;;;31.23;9.45;;;;;;;-143.48;94.89;118439.88;5053736;28;20028;-29
2023/02/11 05:27:21;;;;;;;34.08;10.18;;;;;;;-143.48;94.82;118439.88;5054579;28;20463;-29
2023/02/11 05:29:46;;;;;;;29.85;9.90;;;;;;;-143.48;94.93;118439.88;5054254;28;20593;-29
2023/02/11 05:32:11;;;;;;;27.98;10.00;;;;;;;-143.48;95.03;118439.88;5054433;28;20028;-29
2023/02/11 05:34:36;;;;;;;34.47;9.95;;;;;;;-143.48;95.15;118439.88;5054120;28;20020;-29
2023/02/11 05:37:02;;;;;;;31.88;9.43;;;;;;;-143.48;95.37;118439.88;5054083;28;20035;-29
2023/02/11 05:39:27;;;;;;;27.40;9.90;;;;;;;-143.48;95.00;118439.88;5054337;28;20092;-29
2023/02/11 05:41:52;;;;;;;33.10;10.98;;;;;;;-143.48;95.09;118439.88;5053569;28;20021;-29
2023/02/11 05:44:18;;;;;;;41.17;11.55;;;;;;;-143.48;95.30;118439.88;5053832;28;20087;-29
2023/02/11 05:46:43;;;;;;;34.90;10.52;;;;;;;-143.48;95.38;118439.88;5053949;28;20103;-29
2023/02/11 05:49:09;;;;;;;33.30;10.57;;;;;;;-143.48;95.24;118439.88;5053884;28;20139;-29
2023/02/11 05:51:34;;;;;;;34.63;11.02;;;;;;;-143.48;95.13;118439.88;5054398;28;20032;-29
2023/02/11 05:53:59;;;;;;;34.40;10.88;;;;;;;-143.48;95.22;118439.88;5054011;28;20017;-29
2023/02/11 05:56:24;;;;;;;36.13;10.55;;;;;;;-143.48;95.40;118439.88;5054091;28;20070;-29
2023/02/11 05:58:50;;;;;;;32.25;11.07;;;;;;;-143.48;95.05;118439.88;5054053;28;20033;-29
2023/02/11 06:01:15;;;;;;;31.20;11.82;;;;;;;-143.48;95.27;118439.88;5053926;28;20487;-29
2023/02/11 06:03:40;;;;;;;32.30;11.00;;;;;;;-143.48;94.73;118439.88;5053619;28;20028;-29
2023/02/11 06:06:11;;;;;;;38.40;12.25;;;;;;;-143.48;95.18;118439.88;5053849;28;20036;-32
2023/02/11 06:08:36;;;;;;;29.10;11.20;;;;;;;-143.48;95.44;118439.88;5054088;28;20020;-29
2023/02/11 06:11:02;;;;;;;38.78;12.05;;;;;;;-143.48;95.55;118439.88;5053379;28;20460;-29
2023/02/11 06:13:27;;;;;;;29.25;11.32;;;;;;;-143.48;95.99;118439.88;5054119;28;20146;-29
2023/02/11 06:16:00;;;;;;;44.70;12.07;;;;;;;-143.48;95.95;118439.88;5053674;28;20017;-29
2023/02/11 06:18:25;;;;;;;41.22;12.55;;;;;;;-143.48;95.33;118439.88;5053316;28;20056;-29
2023/02/11 06:20:51;;;;;;;33.95;12.23;;;;;;;-143.48;95.78;118439.88;5053345;28;20036;-29
2023/02/11 06:23:16;;;;;;;34.72;13.13;;;;;;;-143.48;96.20;118439.88;5053428;28;20108;-29
2023/02/11 06:25:41;;;;;;;35.10;13.05;;;;;;;-143.48;96.42;118439.88;5053400;28;20029;-34
2023/02/11 06:28:07;;;;;;;34.35;12.98;;;;;;;-143.48;95.89;118439.88;5053538;28;20025;-35
2023/02/11 06:30:32;;;;;;;30.17;11.85;;;;;;;-143.48;96.03;118439.88;5053636;28;20049;-35
2023/02/11 06:32:58;;;;;;;34.17;11.88;;;;;;;-143.48;95.75;118439.88;5053336;28;20025;-35
2023/02/11 06:35:23;;;;;;;32.22;12.27;;;;;;;-143.48;95.96;118439.88;5053305;28;20028;-35
2023/02/11 06:37:48;;;;;;;39.33;13.75;;;;;;;-143.48;96.21;118439.88;5051883;28;20116;-35
2023/02/11 06:40:14;;;;;;;35.50;13.30;;;;;;;-143.48;95.98;118439.88;5053425;28;20096;-35
2023/02/11 06:42:39;;;;;;;33.05;12.50;;;;;;;-143.48;96.21;118439.88;5053224;28;20036;-34
2023/02/11 06:45:07;;;;;;;35.78;13.07;;;;;;;-143.48;96.08;118439.88;5053464;28;20376;-35
2023/02/11 06:47:33;;;;;;;38.00;14.18;;;;;;;-143.48;96.24;118439.88;5051875;28;20067;-37
2023/02/11 06:49:58;;;;;;;34.92;13.60;;;;;;;-143.48;96.19;118439.88;5053029;28;20021;-34
2023/02/11 06:52:24;;;;;;;39.60;14.20;;;;;;;-143.48;96.70;118439.88;5054779;28;20051;-35
2023/02/11 06:54:49;;;;;;;42.33;14.45;;;;;;;-143.48;96.85;118439.88;5057415;28;20379;-35
2023/02/11 06:57:15;;;;;;;40.45;15.85;;;;;;;-143.48;96.81;118439.88;5055831;28;20025;-36
2023/02/11 06:59:40;;;;;;;41.65;15.13;;;;;;;-143.48;97.01;118439.88;5057056;28;20040;-36
2023/02/11 07:02:09;;;;;;;35.88;14.30;;;;;;;-143.48;96.73;118439.88;5057380;28;20099;-35
2023/02/11 07:04:34;;;;;;;37.08;14.93;;;;;;;-143.48;96.95;118439.88;5055684;28;20029;-35
2023/02/11 07:07:00;;;;;;;34.60;14.32;;;;;;;-143.48;97.37;118439.88;5057243;28;20032;-34
2023/02/11 07:09:25;;;;;;;40.17;15.13;;;;;;;-143.48;97.47;118439.88;5056940;28;20040;-34
2023/02/11 07:11:50;;;;;;;36.60;15.25;;;;;;;-143.48;97.29;118439.88;5056697;28;20059;-36
2023/02/11 07:14:16;;;;;;;44.33;15.02;;;;;;;-143.48;97.24;118439.88;5056707;28;20479;-34
2023/02/11 07:16:41;;;;;;;40.33;14.93;;;;;;;-143.48;97.45;118439.88;5056644;28;20100;-35
2023/02/11 07:19:06;;;;;;;46.25;16.40;;;;;;;-143.48;97.45;118439.88;5056653;28;20055;-36
2023/02/11 07:21:32;;;;;;;44.20;16.05;;;;;;;-143.48;97.88;118439.88;5056962;28;20521;-36
2023/02/11 07:23:57;;;;;;;44.63;15.85;;;;;;;-143.48;96.94;118439.88;5055285;28;20078;-35
2023/02/11 07:26:24;;;;;;;40.35;16.40;;;;;;;-143.48;97.43;118439.88;5056442;28;20021;-35
2023/02/11 07:28:51;;;;;;;44.30;16.30;;;;;;;-143.48;97.57;118439.88;5056665;28;20021;-35
2023/02/11 07:31:19;;;;;;;47.78;16.20;;;;;;;-143.48;97.73;118439.88;5056370;28;20468;-35
2023/02/11 07:33:45;;;;;;;43.42;15.75;;;;;;;-143.48;97.82;118439.88;5054910;28;20536;-36
2023/02/11 07:36:12;;;;;;;41.47;16.67;;;;;;;-143.48;97.35;118439.88;5056749;28;20025;-35
2023/02/11 07:38:38;;;;;;;43.45;15.52;;;;;;;-143.48;97.37;118439.88;5055550;28;20052;-35
2023/02/11 07:41:06;;;;;;;38.47;16.48;;;;;;;-143.48;97.14;118439.88;5056489;28;20062;-35
2023/02/11 07:43:32;;;;;;;43.63;16.20;;;;;;;-143.48;97.24;118439.88;5055850;28;20033;-34
2023/02/11 07:45:58;;;;;;;44.67;16.85;;;;;;;-143.48;97.19;118439.88;5056087;28;20053;-36
2023/02/11 07:48:24;;;;;;;47.33;17.20;;;;;;;-143.48;97.13;118439.88;5054717;28;20124;-35
2023/02/11 07:50:49;;;;;;;37.33;15.52;;;;;;;-143.48;97.48;118439.88;5056326;28;20105;-35
2023/02/11 07:53:15;;;;;;;40.05;17.25;;;;;;;-143.48;97.42;118439.88;5056220;28;20021;-35
2023/02/11 07:55:41;;;;;;;41.20;16.52;;;;;;;-143.48;97.10;118439.88;5055836;28;20028;-36
2023/02/11 07:58:07;;;;;;;44.95;17.17;;;;;;;-143.48;97.35;118439.88;5056024;28;20151;-35
2023/02/11 08:00:32;;;;;;;45.00;17.48;;;;;;;-143.48;97.46;118439.88;5055698;28;20497;-35
2023/02/11 08:02:57;;;;;;;43.90;17.08;;;;;;;-143.48;97.49;118439.88;5055611;28;20040;-35
2023/02/11 08:05:23;;;;;;;45.65;17.45;;;;;;;-143.48;97.51;118439.88;5054955;28;20032;-35
2023/02/11 08:07:52;;;;;;;43.08;16.80;;;;;;;-143.48;97.06;118439.88;5055603;28;20380;-35
2023/02/11 08:10:17;;;;;;;46.30;17.23;;;;;;;-143.48;96.93;118439.88;5056317;28;20025;-35
2023/02/11 08:12:43;;;;;;;43.40;17.50;;;;;;;-143.48;96.34;118439.88;5055504;28;20032;-38
2023/02/11 08:15:08;;;;;;;41.50;16.60;;;;;;;-143.48;96.40;118439.88;5055851;28;20033;-36
2023/02/11 08:17:34;;;;;;;46.15;16.80;;;;;;;-143.48;96.74;118439.88;5055728;28;20086;-35
2023/02/11 08:20:00;;;;;;;39.28;16.85;;;;;;;-143.48;96.60;118439.88;5055134;28;20458;-34
2023/02/11 08:22:25;;;;;;;42.30;17.25;;;;;;;-143.48;96.55;118439.88;5054722;28;20040;-35
2023/02/11 08:24:51;;;;;;;43.05;17.23;;;;;;;-143.48;96.67;118439.88;5053289;28;20047;-35
2023/02/11 08:27:16;;;;;;;38.80;16.60;;;;;;;-143.48;96.42;118439.88;5053159;28;20200;-36
2023/02/11 08:29:41;;;;;;;40.67;17.90;;;;;;;-143.48;96.96;118439.88;5052978;28;20024;-34
2023/02/11 08:32:06;;;;;;;42.63;17.50;;;;;;;-143.48;96.43;118439.88;5053093;28;20028;-35
2023/02/11 08:34:33;;;;;;;43.53;17.50;;;;;;;-143.48;96.24;118439.88;5051580;28;20021;-35
2023/02/11 08:36:58;;;;;;;39.22;17.90;;;;;;;-143.48;95.78;118439.88;5053032;28;20021;-35
2023/02/11 08:39:23;;;;;;;44.72;16.85;;;;;;;-143.48;95.91;118439.88;5053849;28;20078;-35
2023/02/11 08:41:52;;;;;;;44.55;16.95;;;;;;;-143.48;96.06;118439.88;5055302;28;20021;-35
2023/02/11 08:44:19;;;;;;;39.38;16.92;;;;;;;-143.48;95.79;118439.88;5055070;28;20021;-35
2023/02/11 08:46:44;;;;;;;39.35;16.08;;;;;;;-143.48;95.18;118439.88;5055130;28;20374;-35
2023/02/11 08:49:10;;;;;;;39.95;17.88;;;;;;;-143.48;95.16;118439.88;5054871;28;20102;-35
2023/02/11 08:51:35;;;;;;;41.00;17.45;;;;;;;-143.48;95.14;118439.88;5055309;28;20090;-35
2023/02/11 08:54:01;;;;;;;43.83;17.48;;;;;;;-143.48;95.42;118439.88;5055054;28;20547;-37
2023/02/11 08:56:27;;;;;;;40.75;17.40;;;;;;;-143.48;95.39;118439.88;5054754;28;20049;-35
2023/02/11 08:58:53;;;;;;;36.05;16.55;;;;;;;-143.48;95.37;118439.88;5054990;28;20033;-35
2023/02/11 09:01:24;;;;;;;36.00;16.80;;;;;;;-143.48;94.94;118439.88;5054797;28;20378;-36
2023/02/11 09:03:50;;;;;;;40.53;16.55;;;;;;;-143.48;94.67;118439.88;5054561;28;20025;-34
2023/02/11 09:06:17;;;;;;;32.60;15.95;;;;;;;-143.48;94.44;118439.88;5054847;28;20055;-37
2023/02/11 09:08:48;;;;;;;45.05;15.43;;;;;;;-143.48;94.71;118439.88;5054483;28;20452;-34
2023/02/11 09:11:13;;;;;;;35.47;15.65;;;;;;;-143.48;94.30;118439.88;5054577;28;20529;-38
2023/02/11 09:13:41;;;;;;;36.08;16.42;;;;;;;-143.48;94.07;118439.88;5054372;28;20025;-34
2023/02/11 09:16:07;;;;;;;40.38;15.95;;;;;;;-143.48;94.05;118439.88;5054551;28;20468;-34
2023/02/11 09:18:33;;;;;;;32.72;15.63;;;;;;;-143.48;93.52;118439.88;5054325;28;20458;-34
2023/02/11 09:21:03;;;;;;;32.92;15.35;;;;;;;-143.48;93.50;118439.88;5054412;28;20029;-35
2023/02/11 09:23:29;;;;;;;46.67;16.73;;;;;;;-143.48;93.76;118439.88;5053644;28;20056;-36
2023/02/11 09:25:54;;;;;;;32.03;16.10;;;;;;;-143.48;93.23;118439.88;5054276;28;20025;-35
2023/02/11 09:28:19;;;;;;;30.60;14.73;;;;;;;-143.48;93.34;118439.88;5054514;28;20063;-35
2023/02/11 09:30:45;;;;;;;34.58;15.68;;;;;;;-143.48;92.72;118439.88;5054167;28;20021;-36
2023/02/11 09:33:10;;;;;;;30.75;15.50;;;;;;;-143.48;92.37;118439.88;5052756;28;20028;-34
2023/02/11 09:35:35;;;;;;;30.25;15.75;;;;;;;-143.48;92.88;118439.88;5054280;28;20086;-35
2023/02/11 09:38:01;;;;;;;43.10;16.73;;;;;;;-143.48;92.81;118439.88;5053913;28;20017;-35
2023/02/11 09:40:26;;;;;;;34.40;15.32;;;;;;;-143.48;92.05;118439.88;5053846;28;20112;-35
2023/02/11 09:43:15;;;;;;;34.22;14.60;;;;;;;-143.48;91.78;118439.88;5053835;28;20530;-35
2023/02/11 09:45:40;;;;;;;34.13;14.80;;;;;;;-143.48;91.88;118439.88;5053690;28;20025;-35
2023/02/11 09:48:19;;;;;;;32.05;15.48;;;;;;;-143.48;91.83;118439.88;5052824;28;20074;-36
2023/02/11 09:50:56;;;;;;;31.52;15.27;;;;;;;-143.48;91.30;118439.88;5053712;28;20428;-34
2023/02/11 09:53:34;;;;;;;34.45;14.73;;;;;;;-143.48;91.37;118439.88;5053626;28;20056;-37
2023/02/11 09:56:01;;;;;;;34.10;16.05;;;;;;;-143.48;90.81;118439.88;5053606;28;20472;-35
2023/02/11 09:58:30;;;;;;;32.78;15.18;;;;;;;-143.48;89.61;118439.88;5053616;28;20118;-37
2023/02/11 10:01:15;;;;;;;26.05;13.77;;;;;;;-143.48;89.42;118439.88;5053850;28;20116;-35
2023/02/11 10:03:46;;;;;;;31.58;15.23;;;;;;;-143.48;89.28;118439.88;5053520;28;20032;-37
2023/02/11 10:06:27;;;;;;;32.42;15.13;;;;;;;-143.48;88.88;118439.88;5054132;28;20029;-34
2023/02/11 10:09:19;;;;;;;27.00;14.35;;;;;;;-143.48;88.52;118439.88;5053484;28;20107;-37
2023/02/11 10:12:15;;;;;;;30.95;13.65;;;;;;;-143.48;89.46;118439.88;5052266;28;20037;-35
2023/02/11 10:14:56;;;;;;;29.05;14.60;;;;;;;-143.48;89.21;118439.88;5053525;28;20170;-38
2023/02/11 10:17:45;;;;;;;33.40;15.02;;;;;;;-143.48;89.08;118439.88;5053358;28;20386;-36
2023/02/11 10:20:36;;;;;;;29.48;14.50;;;;;;;-143.48;89.36;118439.88;5053049;28;20045;-35
2023/02/11 10:23:12;;;;;;;31.67;14.57;;;;;;;-143.48;89.21;118439.88;5053615;28;20020;-38
2023/02/11 10:25:41;;;;;;;29.63;14.65;;;;;;;-143.48;89.05;118439.88;5053537;28;20022;-35
2023/02/11 10:28:19;;;;;;;28.35;13.82;;;;;;;-143.48;89.14;118439.88;5053203;28;20031;-36
2023/02/11 10:30:50;;;;;;;32.13;14.63;;;;;;;-143.48;88.45;118439.88;5053329;28;20113;-38
2023/02/11 10:33:30;;;;;;;33.08;13.75;;;;;;;-143.48;88.46;118439.88;5053257;28;20032;-34
2023/02/11 10:35:55;;;;;;;29.45;13.65;;;;;;;-143.48;87.14;118439.88;5053394;28;20029;-35
2023/02/11 10:38:20;;;;;;;28.52;13.68;;;;;;;-143.48;85.94;118439.88;5053563;28;20533;-34
2023/02/11 10:40:46;;;;;;;25.73;13.75;;;;;;;-143.48;85.65;118439.88;5052969;28;20029;-36
2023/02/11 10:43:16;;;;;;;24.42;13.60;;;;;;;-143.48;85.02;118439.88;5053354;28;20053;-35
2023/02/11 10:45:46;;;;;;;23.58;13.65;;;;;;;-143.48;84.84;118439.88;5052597;28;20393;-34
2023/02/11 10:48:51;;;;;;;27.92;13.07;;;;;;;-143.48;84.33;118439.88;5052620;28;20383;-35
2023/02/11 10:51:25;;;;;;;24.00;13.77;;;;;;;-143.48;82.31;118439.88;5052523;28;20029;-35
2023/02/11 10:54:03;;;;;;;23.38;13.35;;;;;;;-143.48;80.10;118439.88;5052758;28;20049;-34
2023/02/11 10:56:31;;;;;;;22.40;12.57;;;;;;;-143.48;79.20;118439.88;5052501;28;20037;-35
2023/02/11 10:59:04;;;;;;;23.40;11.90;;;;;;;-143.48;81.78;118439.88;5052592;28;20025;-35
2023/02/11 11:01:49;;;;;;;22.23;11.68;;;;;;;-143.48;81.99;118439.88;5052769;28;20025;-35
2023/02/11 11:04:31;;;;;;;19.33;10.32;;;;;;;-143.48;81.66;118439.88;5052812;28;20032;-36
2023/02/11 11:07:28;;;;;;;16.75;8.60;;;;;;;-143.48;79.83;118439.88;5052732;28;20116;-35
2023/02/11 11:09:58;;;;;;;17.33;8.70;;;;;;;-143.48;79.07;118439.88;5052508;28;20036;-35
2023/02/11 11:12:44;;;;;;;18.10;8.57;;;;;;;-143.48;79.27;118439.88;5052792;28;20112;-36
2023/02/11 11:15:09;;;;;;;17.10;8.27;;;;;;;-143.48;79.22;118439.88;5053244;28;20056;-35